sensor_id;sensor_type;location;lat;lon;timestamp;P1;durP1;ratioP1;P2;durP2;ratioP2
5349;SDS011;2697;42.144;24.794;2023-06-10T00:01:18;11.47;;;5.30;;
5349;SDS011;2697;42.144;24.794;2023-06-10T00:03:43;7.33;;;4.70;;
5349;SDS011;2697;42.144;24.794;2023-06-10T00:06:09;19.80;;;4.53;;
5349;SDS011;2697;42.144;24.794;2023-06-10T00:08:35;7.83;;;6.20;;
5349;SDS011;2697;42.144;24.794;2023-06-10T00:11:02;11.23;;;4.93;;
5349;SDS011;2697;42.144;24.794;2023-06-10T00:13:27;7.50;;;5.10;;
5349;SDS011;2697;42.144;24.794;2023-06-10T00:15:53;14.50;;;5.87;;
5349;SDS011;2697;42.144;24.794;2023-06-10T00:18:18;15.00;;;4.97;;
5349;SDS011;2697;42.144;24.794;2023-06-10T00:20:47;5.87;;;4.67;;
5349;SDS011;2697;42.144;24.794;2023-06-10T00:23:13;10.07;;;5.33;;
5349;SDS011;2697;42.144;24.794;2023-06-10T00:25:39;9.73;;;4.83;;
5349;SDS011;2697;42.144;24.794;2023-06-10T00:28:05;10.80;;;4.70;;
5349;SDS011;2697;42.144;24.794;2023-06-10T00:30:30;8.90;;;5.23;;
5349;SDS011;2697;42.144;24.794;2023-06-10T00:32:56;6.60;;;4.20;;
5349;SDS011;2697;42.144;24.794;2023-06-10T00:35:21;7.67;;;4.60;;
5349;SDS011;2697;42.144;24.794;2023-06-10T00:37:46;8.63;;;4.93;;
5349;SDS011;2697;42.144;24.794;2023-06-10T00:40:12;28.57;;;5.53;;
5349;SDS011;2697;42.144;24.794;2023-06-10T00:42:37;10.37;;;4.90;;
5349;SDS011;2697;42.144;24.794;2023-06-10T00:45:03;9.10;;;4.97;;
5349;SDS011;2697;42.144;24.794;2023-06-10T00:47:29;15.03;;;5.40;;
5349;SDS011;2697;42.144;24.794;2023-06-10T00:49:56;10.60;;;5.13;;
5349;SDS011;2697;42.144;24.794;2023-06-10T00:52:22;7.60;;;4.83;;
5349;SDS011;2697;42.144;24.794;2023-06-10T00:54:49;7.80;;;5.57;;
5349;SDS011;2697;42.144;24.794;2023-06-10T00:57:15;4.90;;;4.30;;
5349;SDS011;2697;42.144;24.794;2023-06-10T00:59:41;10.20;;;5.10;;
5349;SDS011;2697;42.144;24.794;2023-06-10T01:02:12;9.60;;;4.80;;
5349;SDS011;2697;42.144;24.794;2023-06-10T01:04:37;7.43;;;5.60;;
5349;SDS011;2697;42.144;24.794;2023-06-10T01:10:25;11.53;;;5.30;;
5349;SDS011;2697;42.144;24.794;2023-06-10T01:13:05;12.90;;;5.83;;
5349;SDS011;2697;42.144;24.794;2023-06-10T01:15:33;6.83;;;5.30;;
5349;SDS011;2697;42.144;24.794;2023-06-10T01:20:27;10.97;;;6.07;;
5349;SDS011;2697;42.144;24.794;2023-06-10T01:22:56;8.33;;;5.07;;
5349;SDS011;2697;42.144;24.794;2023-06-10T01:25:23;9.60;;;5.60;;
5349;SDS011;2697;42.144;24.794;2023-06-10T01:33:38;15.70;;;7.57;;
5349;SDS011;2697;42.144;24.794;2023-06-10T01:36:11;11.63;;;6.43;;
5349;SDS011;2697;42.144;24.794;2023-06-10T01:38:44;9.30;;;5.10;;
5349;SDS011;2697;42.144;24.794;2023-06-10T01:41:15;12.80;;;5.40;;
5349;SDS011;2697;42.144;24.794;2023-06-10T01:43:45;8.20;;;6.93;;
5349;SDS011;2697;42.144;24.794;2023-06-10T01:46:11;8.23;;;6.07;;
5349;SDS011;2697;42.144;24.794;2023-06-10T01:48:37;8.00;;;6.00;;
5349;SDS011;2697;42.144;24.794;2023-06-10T01:51:03;8.60;;;5.50;;
5349;SDS011;2697;42.144;24.794;2023-06-10T01:53:28;11.00;;;6.70;;
5349;SDS011;2697;42.144;24.794;2023-06-10T01:55:54;11.30;;;6.57;;
5349;SDS011;2697;42.144;24.794;2023-06-10T01:58:19;12.50;;;6.47;;
5349;SDS011;2697;42.144;24.794;2023-06-10T02:00:45;8.50;;;6.43;;
5349;SDS011;2697;42.144;24.794;2023-06-10T02:03:10;12.93;;;7.03;;
5349;SDS011;2697;42.144;24.794;2023-06-10T02:05:35;9.30;;;7.07;;
5349;SDS011;2697;42.144;24.794;2023-06-10T02:08:01;25.43;;;7.50;;
5349;SDS011;2697;42.144;24.794;2023-06-10T02:10:26;13.63;;;7.03;;
5349;SDS011;2697;42.144;24.794;2023-06-10T02:12:51;12.47;;;8.30;;
5349;SDS011;2697;42.144;24.794;2023-06-10T02:15:17;16.50;;;8.80;;
5349;SDS011;2697;42.144;24.794;2023-06-10T02:17:42;11.90;;;7.57;;
5349;SDS011;2697;42.144;24.794;2023-06-10T02:20:09;16.00;;;9.60;;
5349;SDS011;2697;42.144;24.794;2023-06-10T02:22:36;25.73;;;8.80;;
5349;SDS011;2697;42.144;24.794;2023-06-10T02:25:01;22.00;;;9.63;;
5349;SDS011;2697;42.144;24.794;2023-06-10T02:27:28;11.80;;;8.27;;
5349;SDS011;2697;42.144;24.794;2023-06-10T02:29:54;21.80;;;9.47;;
5349;SDS011;2697;42.144;24.794;2023-06-10T02:32:19;14.03;;;9.97;;
5349;SDS011;2697;42.144;24.794;2023-06-10T02:34:45;16.37;;;10.33;;
5349;SDS011;2697;42.144;24.794;2023-06-10T02:37:10;17.63;;;10.27;;
5349;SDS011;2697;42.144;24.794;2023-06-10T02:39:36;17.00;;;9.73;;
5349;SDS011;2697;42.144;24.794;2023-06-10T02:42:01;23.83;;;10.03;;
5349;SDS011;2697;42.144;24.794;2023-06-10T02:44:27;19.23;;;10.87;;
5349;SDS011;2697;42.144;24.794;2023-06-10T02:46:52;19.73;;;10.50;;
5349;SDS011;2697;42.144;24.794;2023-06-10T02:49:17;20.20;;;9.33;;
5349;SDS011;2697;42.144;24.794;2023-06-10T02:51:43;11.83;;;9.40;;
5349;SDS011;2697;42.144;24.794;2023-06-10T02:54:09;15.10;;;10.07;;
5349;SDS011;2697;42.144;24.794;2023-06-10T02:56:34;12.10;;;8.60;;
5349;SDS011;2697;42.144;24.794;2023-06-10T02:58:59;15.33;;;10.13;;
5349;SDS011;2697;42.144;24.794;2023-06-10T03:01:25;13.60;;;8.73;;
5349;SDS011;2697;42.144;24.794;2023-06-10T03:03:51;20.27;;;9.70;;
5349;SDS011;2697;42.144;24.794;2023-06-10T03:06:17;16.97;;;9.80;;
5349;SDS011;2697;42.144;24.794;2023-06-10T03:08:42;14.90;;;8.60;;
5349;SDS011;2697;42.144;24.794;2023-06-10T03:11:08;15.93;;;8.50;;
5349;SDS011;2697;42.144;24.794;2023-06-10T03:13:33;15.63;;;9.10;;
5349;SDS011;2697;42.144;24.794;2023-06-10T03:15:59;15.13;;;9.40;;
5349;SDS011;2697;42.144;24.794;2023-06-10T03:18:27;17.50;;;9.30;;
5349;SDS011;2697;42.144;24.794;2023-06-10T03:20:53;15.83;;;9.83;;
5349;SDS011;2697;42.144;24.794;2023-06-10T03:23:20;20.00;;;9.50;;
5349;SDS011;2697;42.144;24.794;2023-06-10T03:25:45;13.80;;;9.50;;
5349;SDS011;2697;42.144;24.794;2023-06-10T03:28:11;20.67;;;8.67;;
5349;SDS011;2697;42.144;24.794;2023-06-10T03:30:36;16.17;;;9.90;;
5349;SDS011;2697;42.144;24.794;2023-06-10T03:33:01;18.17;;;8.90;;
5349;SDS011;2697;42.144;24.794;2023-06-10T03:35:27;11.83;;;8.43;;
5349;SDS011;2697;42.144;24.794;2023-06-10T03:37:52;16.17;;;8.87;;
5349;SDS011;2697;42.144;24.794;2023-06-10T03:40:18;30.03;;;10.67;;
5349;SDS011;2697;42.144;24.794;2023-06-10T03:42:43;16.77;;;9.50;;
5349;SDS011;2697;42.144;24.794;2023-06-10T03:45:09;15.90;;;9.33;;
5349;SDS011;2697;42.144;24.794;2023-06-10T03:47:35;18.30;;;9.77;;
5349;SDS011;2697;42.144;24.794;2023-06-10T03:50:02;16.73;;;8.83;;
5349;SDS011;2697;42.144;24.794;2023-06-10T03:52:29;18.87;;;9.50;;
5349;SDS011;2697;42.144;24.794;2023-06-10T03:54:54;24.13;;;10.90;;
5349;SDS011;2697;42.144;24.794;2023-06-10T03:57:20;19.53;;;9.17;;
5349;SDS011;2697;42.144;24.794;2023-06-10T03:59:45;17.37;;;9.70;;
5349;SDS011;2697;42.144;24.794;2023-06-10T04:02:10;18.67;;;9.57;;
5349;SDS011;2697;42.144;24.794;2023-06-10T04:04:36;16.00;;;8.93;;
5349;SDS011;2697;42.144;24.794;2023-06-10T04:07:02;11.83;;;8.20;;
5349;SDS011;2697;42.144;24.794;2023-06-10T04:09:29;15.23;;;8.50;;
5349;SDS011;2697;42.144;24.794;2023-06-10T04:11:54;18.17;;;8.03;;
5349;SDS011;2697;42.144;24.794;2023-06-10T04:14:19;16.83;;;8.43;;
5349;SDS011;2697;42.144;24.794;2023-06-10T04:16:45;16.20;;;8.20;;
5349;SDS011;2697;42.144;24.794;2023-06-10T04:19:10;11.50;;;7.57;;
5349;SDS011;2697;42.144;24.794;2023-06-10T04:21:36;12.20;;;8.10;;
5349;SDS011;2697;42.144;24.794;2023-06-10T04:24:01;21.47;;;9.20;;
5349;SDS011;2697;42.144;24.794;2023-06-10T04:26:27;17.00;;;9.47;;
5349;SDS011;2697;42.144;24.794;2023-06-10T04:28:52;15.00;;;7.47;;
5349;SDS011;2697;42.144;24.794;2023-06-10T04:31:18;14.10;;;8.10;;
5349;SDS011;2697;42.144;24.794;2023-06-10T04:33:44;10.93;;;7.87;;
5349;SDS011;2697;42.144;24.794;2023-06-10T04:36:09;16.43;;;8.13;;
5349;SDS011;2697;42.144;24.794;2023-06-10T04:38:35;16.30;;;7.40;;
5349;SDS011;2697;42.144;24.794;2023-06-10T04:41:00;15.03;;;7.57;;
5349;SDS011;2697;42.144;24.794;2023-06-10T04:43:26;13.27;;;7.83;;
5349;SDS011;2697;42.144;24.794;2023-06-10T04:45:53;13.53;;;8.00;;
5349;SDS011;2697;42.144;24.794;2023-06-10T04:48:19;14.30;;;8.40;;
5349;SDS011;2697;42.144;24.794;2023-06-10T04:50:44;23.70;;;8.40;;
5349;SDS011;2697;42.144;24.794;2023-06-10T04:53:09;16.63;;;7.13;;
5349;SDS011;2697;42.144;24.794;2023-06-10T04:55:35;16.03;;;7.17;;
5349;SDS011;2697;42.144;24.794;2023-06-10T04:58:01;16.10;;;8.17;;
5349;SDS011;2697;42.144;24.794;2023-06-10T05:00:26;14.80;;;8.37;;
5349;SDS011;2697;42.144;24.794;2023-06-10T05:02:52;13.70;;;8.07;;
5349;SDS011;2697;42.144;24.794;2023-06-10T05:05:18;15.63;;;7.83;;
5349;SDS011;2697;42.144;24.794;2023-06-10T05:07:44;11.93;;;7.23;;
5349;SDS011;2697;42.144;24.794;2023-06-10T05:10:09;20.70;;;7.90;;
5349;SDS011;2697;42.144;24.794;2023-06-10T05:12:37;11.57;;;6.73;;
5349;SDS011;2697;42.144;24.794;2023-06-10T05:15:04;11.97;;;7.00;;
5349;SDS011;2697;42.144;24.794;2023-06-10T05:17:30;15.97;;;7.17;;
5349;SDS011;2697;42.144;24.794;2023-06-10T05:19:56;11.13;;;7.00;;
5349;SDS011;2697;42.144;24.794;2023-06-10T05:22:21;15.73;;;6.37;;
5349;SDS011;2697;42.144;24.794;2023-06-10T05:24:49;12.93;;;6.30;;
5349;SDS011;2697;42.144;24.794;2023-06-10T05:27:14;27.63;;;6.83;;
5349;SDS011;2697;42.144;24.794;2023-06-10T05:29:40;16.40;;;6.50;;
5349;SDS011;2697;42.144;24.794;2023-06-10T05:32:05;18.30;;;6.90;;
5349;SDS011;2697;42.144;24.794;2023-06-10T05:34:31;13.77;;;5.83;;
5349;SDS011;2697;42.144;24.794;2023-06-10T05:36:57;10.73;;;6.20;;
5349;SDS011;2697;42.144;24.794;2023-06-10T05:39:22;13.20;;;6.07;;
5349;SDS011;2697;42.144;24.794;2023-06-10T05:41:48;10.20;;;6.30;;
5349;SDS011;2697;42.144;24.794;2023-06-10T05:44:13;11.60;;;6.20;;
5349;SDS011;2697;42.144;24.794;2023-06-10T05:46:38;12.47;;;6.20;;
5349;SDS011;2697;42.144;24.794;2023-06-10T05:49:04;23.50;;;6.33;;
5349;SDS011;2697;42.144;24.794;2023-06-10T05:51:29;16.50;;;7.00;;
5349;SDS011;2697;42.144;24.794;2023-06-10T05:53:55;19.83;;;8.73;;
5349;SDS011;2697;42.144;24.794;2023-06-10T05:56:20;12.47;;;8.77;;
5349;SDS011;2697;42.144;24.794;2023-06-10T05:58:49;15.00;;;7.70;;
5349;SDS011;2697;42.144;24.794;2023-06-10T06:01:14;10.87;;;6.63;;
5349;SDS011;2697;42.144;24.794;2023-06-10T06:03:40;15.50;;;6.60;;
5349;SDS011;2697;42.144;24.794;2023-06-10T06:06:05;13.53;;;6.00;;
5349;SDS011;2697;42.144;24.794;2023-06-10T06:08:31;13.97;;;6.17;;
5349;SDS011;2697;42.144;24.794;2023-06-10T06:10:56;10.67;;;6.83;;
5349;SDS011;2697;42.144;24.794;2023-06-10T06:13:22;26.17;;;7.07;;
5349;SDS011;2697;42.144;24.794;2023-06-10T06:15:47;13.30;;;6.37;;
5349;SDS011;2697;42.144;24.794;2023-06-10T06:18:13;8.83;;;5.70;;
5349;SDS011;2697;42.144;24.794;2023-06-10T06:20:38;13.27;;;5.40;;
5349;SDS011;2697;42.144;24.794;2023-06-10T06:23:03;17.37;;;6.57;;
5349;SDS011;2697;42.144;24.794;2023-06-10T06:25:29;15.07;;;5.50;;
5349;SDS011;2697;42.144;24.794;2023-06-10T06:27:54;14.20;;;6.37;;
5349;SDS011;2697;42.144;24.794;2023-06-10T06:30:20;15.97;;;6.00;;
5349;SDS011;2697;42.144;24.794;2023-06-10T06:32:45;8.57;;;6.00;;
5349;SDS011;2697;42.144;24.794;2023-06-10T06:35:10;11.80;;;5.30;;
5349;SDS011;2697;42.144;24.794;2023-06-10T06:37:36;6.90;;;5.27;;
5349;SDS011;2697;42.144;24.794;2023-06-10T06:40:01;30.13;;;6.73;;
5349;SDS011;2697;42.144;24.794;2023-06-10T06:42:28;6.30;;;5.00;;
5349;SDS011;2697;42.144;24.794;2023-06-10T06:44:54;66.47;;;7.50;;
5349;SDS011;2697;42.144;24.794;2023-06-10T06:47:19;22.20;;;5.97;;
5349;SDS011;2697;42.144;24.794;2023-06-10T06:49:48;11.20;;;5.37;;
5349;SDS011;2697;42.144;24.794;2023-06-10T06:52:14;13.07;;;5.33;;
5349;SDS011;2697;42.144;24.794;2023-06-10T06:54:40;13.20;;;4.87;;
5349;SDS011;2697;42.144;24.794;2023-06-10T06:57:05;9.00;;;4.80;;
5349;SDS011;2697;42.144;24.794;2023-06-10T06:59:32;13.88;;;4.60;;
5349;SDS011;2697;42.144;24.794;2023-06-10T07:01:57;11.73;;;4.88;;
5349;SDS011;2697;42.144;24.794;2023-06-10T07:04:23;12.38;;;4.85;;
5349;SDS011;2697;42.144;24.794;2023-06-10T07:06:48;8.00;;;4.00;;
5349;SDS011;2697;42.144;24.794;2023-06-10T07:09:14;17.05;;;4.70;;
5349;SDS011;2697;42.144;24.794;2023-06-10T07:11:39;13.45;;;4.35;;
5349;SDS011;2697;42.144;24.794;2023-06-10T07:14:06;14.95;;;4.40;;
5349;SDS011;2697;42.144;24.794;2023-06-10T07:16:32;15.60;;;4.40;;
5349;SDS011;2697;42.144;24.794;2023-06-10T07:18:57;10.45;;;4.20;;
5349;SDS011;2697;42.144;24.794;2023-06-10T07:21:23;11.52;;;5.57;;
5349;SDS011;2697;42.144;24.794;2023-06-10T07:23:48;10.27;;;4.38;;
5349;SDS011;2697;42.144;24.794;2023-06-10T07:26:14;9.90;;;5.70;;
5349;SDS011;2697;42.144;24.794;2023-06-10T07:28:40;14.05;;;4.90;;
5349;SDS011;2697;42.144;24.794;2023-06-10T07:31:06;10.98;;;4.60;;
5349;SDS011;2697;42.144;24.794;2023-06-10T07:33:32;8.63;;;5.20;;
5349;SDS011;2697;42.144;24.794;2023-06-10T07:35:58;11.97;;;4.67;;
5349;SDS011;2697;42.144;24.794;2023-06-10T07:38:24;7.40;;;4.00;;
5349;SDS011;2697;42.144;24.794;2023-06-10T07:40:50;14.35;;;4.15;;
5349;SDS011;2697;42.144;24.794;2023-06-10T07:43:15;10.48;;;5.20;;
5349;SDS011;2697;42.144;24.794;2023-06-10T07:45:41;15.43;;;4.80;;
5349;SDS011;2697;42.144;24.794;2023-06-10T07:48:06;11.75;;;4.25;;
5349;SDS011;2697;42.144;24.794;2023-06-10T07:50:32;7.10;;;4.10;;
5349;SDS011;2697;42.144;24.794;2023-06-10T07:52:58;14.27;;;4.38;;
5349;SDS011;2697;42.144;24.794;2023-06-10T07:55:23;7.30;;;4.75;;
5349;SDS011;2697;42.144;24.794;2023-06-10T07:57:50;5.20;;;4.15;;
5349;SDS011;2697;42.144;24.794;2023-06-10T08:00:16;9.60;;;4.43;;
5349;SDS011;2697;42.144;24.794;2023-06-10T08:02:42;12.80;;;4.47;;
5349;SDS011;2697;42.144;24.794;2023-06-10T08:05:07;10.68;;;3.83;;
5349;SDS011;2697;42.144;24.794;2023-06-10T08:07:33;7.70;;;3.63;;
5349;SDS011;2697;42.144;24.794;2023-06-10T08:09:58;14.90;;;4.32;;
5349;SDS011;2697;42.144;24.794;2023-06-10T08:12:24;21.58;;;4.85;;
5349;SDS011;2697;42.144;24.794;2023-06-10T08:14:49;5.45;;;4.50;;
5349;SDS011;2697;42.144;24.794;2023-06-10T08:17:15;14.57;;;5.28;;
5349;SDS011;2697;42.144;24.794;2023-06-10T08:19:40;14.30;;;4.80;;
5349;SDS011;2697;42.144;24.794;2023-06-10T08:22:06;15.50;;;4.70;;
5349;SDS011;2697;42.144;24.794;2023-06-10T08:24:32;8.00;;;4.45;;
5349;SDS011;2697;42.144;24.794;2023-06-10T08:26:57;10.65;;;3.67;;
5349;SDS011;2697;42.144;24.794;2023-06-10T08:29:25;21.63;;;4.55;;
5349;SDS011;2697;42.144;24.794;2023-06-10T08:31:50;11.30;;;4.38;;
5349;SDS011;2697;42.144;24.794;2023-06-10T08:34:16;7.68;;;4.22;;
5349;SDS011;2697;42.144;24.794;2023-06-10T08:36:41;11.45;;;4.50;;
5349;SDS011;2697;42.144;24.794;2023-06-10T08:39:08;9.27;;;4.70;;
5349;SDS011;2697;42.144;24.794;2023-06-10T08:41:35;19.83;;;3.40;;
5349;SDS011;2697;42.144;24.794;2023-06-10T08:44:09;3.70;;;3.30;;
5349;SDS011;2697;42.144;24.794;2023-06-10T08:46:44;20.95;;;4.85;;
5349;SDS011;2697;42.144;24.794;2023-06-10T08:49:10;4.95;;;4.03;;
5349;SDS011;2697;42.144;24.794;2023-06-10T08:51:42;8.52;;;4.50;;
5349;SDS011;2697;42.144;24.794;2023-06-10T08:54:15;6.75;;;4.03;;
5349;SDS011;2697;42.144;24.794;2023-06-10T08:56:44;6.22;;;3.40;;
5349;SDS011;2697;42.144;24.794;2023-06-10T08:59:14;6.30;;;3.55;;
5349;SDS011;2697;42.144;24.794;2023-06-10T09:01:41;4.55;;;3.45;;
5349;SDS011;2697;42.144;24.794;2023-06-10T09:04:08;5.70;;;3.45;;
5349;SDS011;2697;42.144;24.794;2023-06-10T09:06:33;9.40;;;3.28;;
5349;SDS011;2697;42.144;24.794;2023-06-10T09:09:00;7.13;;;3.88;;
5349;SDS011;2697;42.144;24.794;2023-06-10T09:11:27;11.00;;;3.80;;
5349;SDS011;2697;42.144;24.794;2023-06-10T09:13:53;8.90;;;3.90;;
5349;SDS011;2697;42.144;24.794;2023-06-10T09:16:18;7.95;;;2.90;;
5349;SDS011;2697;42.144;24.794;2023-06-10T09:18:44;8.32;;;4.30;;
5349;SDS011;2697;42.144;24.794;2023-06-10T09:21:09;18.20;;;4.40;;
5349;SDS011;2697;42.144;24.794;2023-06-10T09:23:35;6.45;;;2.85;;
5349;SDS011;2697;42.144;24.794;2023-06-10T09:26:02;8.48;;;4.00;;
5349;SDS011;2697;42.144;24.794;2023-06-10T09:28:30;6.32;;;3.30;;
5349;SDS011;2697;42.144;24.794;2023-06-10T09:31:05;10.73;;;3.65;;
5349;SDS011;2697;42.144;24.794;2023-06-10T09:33:32;6.47;;;3.53;;
5349;SDS011;2697;42.144;24.794;2023-06-10T09:35:58;11.20;;;2.83;;
5349;SDS011;2697;42.144;24.794;2023-06-10T09:38:30;13.93;;;3.78;;
5349;SDS011;2697;42.144;24.794;2023-06-10T09:40:57;11.73;;;3.88;;
5349;SDS011;2697;42.144;24.794;2023-06-10T09:43:22;5.75;;;3.00;;
5349;SDS011;2697;42.144;24.794;2023-06-10T09:45:49;9.55;;;3.00;;
5349;SDS011;2697;42.144;24.794;2023-06-10T09:48:21;4.15;;;3.35;;
5349;SDS011;2697;42.144;24.794;2023-06-10T09:50:48;6.32;;;3.92;;
5349;SDS011;2697;42.144;24.794;2023-06-10T09:53:13;7.82;;;3.95;;
5349;SDS011;2697;42.144;24.794;2023-06-10T09:55:39;5.00;;;2.95;;
5349;SDS011;2697;42.144;24.794;2023-06-10T09:58:06;7.18;;;3.10;;
5349;SDS011;2697;42.144;24.794;2023-06-10T10:00:33;9.30;;;3.45;;
5349;SDS011;2697;42.144;24.794;2023-06-10T10:02:59;8.23;;;3.60;;
5349;SDS011;2697;42.144;24.794;2023-06-10T10:05:25;3.42;;;3.05;;
5349;SDS011;2697;42.144;24.794;2023-06-10T10:07:52;13.90;;;3.50;;
5349;SDS011;2697;42.144;24.794;2023-06-10T10:10:19;7.30;;;3.75;;
5349;SDS011;2697;42.144;24.794;2023-06-10T10:12:46;7.63;;;4.43;;
5349;SDS011;2697;42.144;24.794;2023-06-10T10:15:13;7.60;;;3.67;;
5349;SDS011;2697;42.144;24.794;2023-06-10T10:17:43;10.20;;;4.40;;
5349;SDS011;2697;42.144;24.794;2023-06-10T10:20:13;12.30;;;3.73;;
5349;SDS011;2697;42.144;24.794;2023-06-10T10:22:43;6.30;;;3.80;;
5349;SDS011;2697;42.144;24.794;2023-06-10T10:25:13;6.00;;;3.90;;
5349;SDS011;2697;42.144;24.794;2023-06-10T10:27:48;12.70;;;2.93;;
5349;SDS011;2697;42.144;24.794;2023-06-10T10:30:16;5.80;;;4.03;;
5349;SDS011;2697;42.144;24.794;2023-06-10T10:33:08;3.27;;;2.97;;
5349;SDS011;2697;42.144;24.794;2023-06-10T10:35:49;4.60;;;3.25;;
5349;SDS011;2697;42.144;24.794;2023-06-10T10:38:15;3.97;;;3.55;;
5349;SDS011;2697;42.144;24.794;2023-06-10T10:40:41;6.32;;;4.32;;
5349;SDS011;2697;42.144;24.794;2023-06-10T10:43:08;10.00;;;3.83;;
5349;SDS011;2697;42.144;24.794;2023-06-10T10:45:34;8.70;;;4.07;;
5349;SDS011;2697;42.144;24.794;2023-06-10T10:48:04;11.00;;;3.22;;
5349;SDS011;2697;42.144;24.794;2023-06-10T10:50:34;7.95;;;3.53;;
5349;SDS011;2697;42.144;24.794;2023-06-10T10:53:00;6.53;;;3.72;;
5349;SDS011;2697;42.144;24.794;2023-06-10T10:55:27;4.35;;;3.90;;
5349;SDS011;2697;42.144;24.794;2023-06-10T10:57:53;8.13;;;3.42;;
5349;SDS011;2697;42.144;24.794;2023-06-10T11:00:44;3.97;;;3.28;;
5349;SDS011;2697;42.144;24.794;2023-06-10T11:03:13;3.45;;;3.13;;
5349;SDS011;2697;42.144;24.794;2023-06-10T11:05:45;8.07;;;4.00;;
5349;SDS011;2697;42.144;24.794;2023-06-10T11:08:15;14.02;;;4.47;;
5349;SDS011;2697;42.144;24.794;2023-06-10T11:11:01;4.75;;;3.80;;
5349;SDS011;2697;42.144;24.794;2023-06-10T11:13:51;5.13;;;3.63;;
5349;SDS011;2697;42.144;24.794;2023-06-10T11:16:23;3.95;;;3.25;;
5349;SDS011;2697;42.144;24.794;2023-06-10T11:18:53;5.93;;;3.28;;
5349;SDS011;2697;42.144;24.794;2023-06-10T11:21:19;3.95;;;2.83;;
5349;SDS011;2697;42.144;24.794;2023-06-10T11:23:45;11.75;;;3.75;;
5349;SDS011;2697;42.144;24.794;2023-06-10T11:26:11;5.35;;;3.85;;
5349;SDS011;2697;42.144;24.794;2023-06-10T11:28:38;7.25;;;3.38;;
5349;SDS011;2697;42.144;24.794;2023-06-10T11:31:27;7.10;;;4.03;;
5349;SDS011;2697;42.144;24.794;2023-06-10T11:33:57;7.53;;;4.88;;
5349;SDS011;2697;42.144;24.794;2023-06-10T11:36:28;6.13;;;3.88;;
5349;SDS011;2697;42.144;24.794;2023-06-10T11:39:05;9.52;;;5.00;;
5349;SDS011;2697;42.144;24.794;2023-06-10T11:41:32;5.20;;;3.25;;
5349;SDS011;2697;42.144;24.794;2023-06-10T11:44:03;9.68;;;4.63;;
5349;SDS011;2697;42.144;24.794;2023-06-10T11:46:35;11.93;;;3.38;;
5349;SDS011;2697;42.144;24.794;2023-06-10T11:49:01;3.58;;;2.97;;
5349;SDS011;2697;42.144;24.794;2023-06-10T11:51:28;10.50;;;3.55;;
5349;SDS011;2697;42.144;24.794;2023-06-10T11:53:55;5.45;;;3.03;;
5349;SDS011;2697;42.144;24.794;2023-06-10T11:56:24;5.93;;;3.30;;
5349;SDS011;2697;42.144;24.794;2023-06-10T11:58:53;8.55;;;3.33;;
5349;SDS011;2697;42.144;24.794;2023-06-10T12:01:23;4.00;;;3.30;;
5349;SDS011;2697;42.144;24.794;2023-06-10T12:04:05;4.40;;;2.85;;
5349;SDS011;2697;42.144;24.794;2023-06-10T12:06:45;11.90;;;2.97;;
5349;SDS011;2697;42.144;24.794;2023-06-10T12:12:05;6.50;;;4.07;;
5349;SDS011;2697;42.144;24.794;2023-06-10T12:17:19;4.57;;;4.13;;
5349;SDS011;2697;42.144;24.794;2023-06-10T12:19:48;6.97;;;3.75;;
5349;SDS011;2697;42.144;24.794;2023-06-10T12:22:14;14.48;;;4.10;;
5349;SDS011;2697;42.144;24.794;2023-06-10T12:24:56;14.75;;;4.10;;
5349;SDS011;2697;42.144;24.794;2023-06-10T12:27:31;10.77;;;4.15;;
5349;SDS011;2697;42.144;24.794;2023-06-10T12:29:58;11.40;;;4.32;;
5349;SDS011;2697;42.144;24.794;2023-06-10T12:32:42;7.50;;;4.50;;
5349;SDS011;2697;42.144;24.794;2023-06-10T12:35:10;7.83;;;4.10;;
5349;SDS011;2697;42.144;24.794;2023-06-10T12:37:38;9.17;;;4.83;;
5349;SDS011;2697;42.144;24.794;2023-06-10T12:40:05;7.90;;;4.67;;
5349;SDS011;2697;42.144;24.794;2023-06-10T12:42:31;10.10;;;4.37;;
5349;SDS011;2697;42.144;24.794;2023-06-10T12:44:59;14.70;;;4.37;;
5349;SDS011;2697;42.144;24.794;2023-06-10T12:47:31;13.30;;;5.00;;
5349;SDS011;2697;42.144;24.794;2023-06-10T12:49:58;7.70;;;5.00;;
5349;SDS011;2697;42.144;24.794;2023-06-10T12:52:24;6.33;;;4.27;;
5349;SDS011;2697;42.144;24.794;2023-06-10T12:54:50;11.10;;;4.57;;
5349;SDS011;2697;42.144;24.794;2023-06-10T12:57:16;7.53;;;4.37;;
5349;SDS011;2697;42.144;24.794;2023-06-10T12:59:42;11.00;;;4.83;;
5349;SDS011;2697;42.144;24.794;2023-06-10T13:02:15;12.23;;;3.80;;
5349;SDS011;2697;42.144;24.794;2023-06-10T13:04:40;7.53;;;4.63;;
5349;SDS011;2697;42.144;24.794;2023-06-10T13:07:07;8.60;;;4.50;;
5349;SDS011;2697;42.144;24.794;2023-06-10T13:09:32;11.87;;;5.20;;
5349;SDS011;2697;42.144;24.794;2023-06-10T13:11:58;19.73;;;4.97;;
5349;SDS011;2697;42.144;24.794;2023-06-10T13:14:24;8.65;;;3.97;;
5349;SDS011;2697;42.144;24.794;2023-06-10T13:16:50;5.43;;;3.80;;
5349;SDS011;2697;42.144;24.794;2023-06-10T13:19:15;7.95;;;3.70;;
5349;SDS011;2697;42.144;24.794;2023-06-10T13:21:41;16.48;;;4.28;;
5349;SDS011;2697;42.144;24.794;2023-06-10T13:24:06;6.45;;;3.97;;
5349;SDS011;2697;42.144;24.794;2023-06-10T13:26:32;4.70;;;3.65;;
5349;SDS011;2697;42.144;24.794;2023-06-10T13:28:57;17.83;;;4.55;;
5349;SDS011;2697;42.144;24.794;2023-06-10T13:31:22;5.43;;;3.42;;
5349;SDS011;2697;42.144;24.794;2023-06-10T13:33:48;5.53;;;3.53;;
5349;SDS011;2697;42.144;24.794;2023-06-10T13:36:13;6.70;;;3.58;;
5349;SDS011;2697;42.144;24.794;2023-06-10T13:38:39;12.63;;;3.90;;
5349;SDS011;2697;42.144;24.794;2023-06-10T13:41:04;10.18;;;3.28;;
5349;SDS011;2697;42.144;24.794;2023-06-10T13:43:30;4.90;;;3.47;;
5349;SDS011;2697;42.144;24.794;2023-06-10T13:45:56;7.00;;;3.58;;
5349;SDS011;2697;42.144;24.794;2023-06-10T13:48:21;4.20;;;3.65;;
5349;SDS011;2697;42.144;24.794;2023-06-10T13:50:46;6.90;;;3.97;;
5349;SDS011;2697;42.144;24.794;2023-06-10T13:53:12;3.80;;;3.45;;
5349;SDS011;2697;42.144;24.794;2023-06-10T13:55:37;5.20;;;3.50;;
5349;SDS011;2697;42.144;24.794;2023-06-10T13:58:03;4.57;;;3.72;;
5349;SDS011;2697;42.144;24.794;2023-06-10T14:00:28;8.97;;;3.47;;
5349;SDS011;2697;42.144;24.794;2023-06-10T14:02:54;10.23;;;4.40;;
5349;SDS011;2697;42.144;24.794;2023-06-10T14:05:19;10.10;;;4.40;;
5349;SDS011;2697;42.144;24.794;2023-06-10T14:07:44;10.13;;;3.70;;
5349;SDS011;2697;42.144;24.794;2023-06-10T14:10:10;8.30;;;3.30;;
5349;SDS011;2697;42.144;24.794;2023-06-10T14:12:36;5.30;;;3.93;;
5349;SDS011;2697;42.144;24.794;2023-06-10T14:15:01;15.70;;;4.32;;
5349;SDS011;2697;42.144;24.794;2023-06-10T14:17:27;20.10;;;3.70;;
5349;SDS011;2697;42.144;24.794;2023-06-10T14:19:52;6.60;;;3.60;;
5349;SDS011;2697;42.144;24.794;2023-06-10T14:22:18;5.60;;;3.47;;
5349;SDS011;2697;42.144;24.794;2023-06-10T14:24:43;9.38;;;3.47;;
5349;SDS011;2697;42.144;24.794;2023-06-10T14:27:08;3.72;;;3.35;;
5349;SDS011;2697;42.144;24.794;2023-06-10T14:29:34;7.05;;;3.92;;
5349;SDS011;2697;42.144;24.794;2023-06-10T14:32:00;5.30;;;3.17;;
5349;SDS011;2697;42.144;24.794;2023-06-10T14:34:25;2.47;;;2.28;;
5349;SDS011;2697;42.144;24.794;2023-06-10T14:36:58;3.30;;;2.40;;
5349;SDS011;2697;42.144;24.794;2023-06-10T14:39:24;4.95;;;3.13;;
5349;SDS011;2697;42.144;24.794;2023-06-10T14:41:50;6.05;;;3.33;;
5349;SDS011;2697;42.144;24.794;2023-06-10T14:44:17;8.20;;;3.40;;
5349;SDS011;2697;42.144;24.794;2023-06-10T14:46:42;7.33;;;3.63;;
5349;SDS011;2697;42.144;24.794;2023-06-10T14:49:08;6.07;;;3.07;;
5349;SDS011;2697;42.144;24.794;2023-06-10T14:51:33;15.63;;;3.57;;
5349;SDS011;2697;42.144;24.794;2023-06-10T14:53:59;5.87;;;3.60;;
5349;SDS011;2697;42.144;24.794;2023-06-10T14:56:24;5.05;;;3.63;;
5349;SDS011;2697;42.144;24.794;2023-06-10T14:58:50;6.20;;;3.55;;
5349;SDS011;2697;42.144;24.794;2023-06-10T15:01:16;5.65;;;3.15;;
5349;SDS011;2697;42.144;24.794;2023-06-10T15:03:43;11.70;;;3.75;;
5349;SDS011;2697;42.144;24.794;2023-06-10T15:06:09;3.65;;;2.38;;
5349;SDS011;2697;42.144;24.794;2023-06-10T15:08:34;8.60;;;3.63;;